sensor_id;sensor_type;location;lat;lon;timestamp;pressure;altitude;pressure_sealevel;temperature;humidity
7058;BME280;3570;43.080;25.628;2023-02-01T00:01:33;-19506.06;;;1.81;100.00
7058;BME280;3570;43.080;25.628;2023-02-01T00:04:18;-19505.75;;;1.80;100.00
7058;BME280;3570;43.080;25.628;2023-02-01T00:07:02;-19501.66;;;1.66;100.00
7058;BME280;3570;43.080;25.628;2023-02-01T00:09:46;-19500.47;;;1.62;100.00
7058;BME280;3570;43.080;25.628;2023-02-01T00:12:30;-19506.66;;;1.83;100.00
7058;BME280;3570;43.080;25.628;2023-02-01T00:15:14;-19504.72;;;1.76;100.00
7058;BME280;3570;43.080;25.628;2023-02-01T00:17:59;-19504.28;;;1.75;100.00
7058;BME280;3570;43.080;25.628;2023-02-01T00:20:46;-19504.00;;;1.74;100.00
7058;BME280;3570;43.080;25.628;2023-02-01T00:23:35;-19504.59;;;1.76;100.00
7058;BME280;3570;43.080;25.628;2023-02-01T00:26:34;-19500.91;;;1.63;100.00
7058;BME280;3570;43.080;25.628;2023-02-01T00:29:19;-19507.22;;;1.85;100.00
7058;BME280;3570;43.080;25.628;2023-02-01T00:32:04;-19506.06;;;1.81;100.00
7058;BME280;3570;43.080;25.628;2023-02-01T00:34:48;-19497.38;;;1.51;100.00
7058;BME280;3570;43.080;25.628;2023-02-01T00:37:32;-19507.22;;;1.85;100.00
7058;BME280;3570;43.080;25.628;2023-02-01T00:40:15;-19511.63;;;2.00;100.00
7058;BME280;3570;43.080;25.628;2023-02-01T00:42:59;-19511.19;;;1.99;100.00
7058;BME280;3570;43.080;25.628;2023-02-01T00:45:45;-19506.34;;;1.82;100.00
7058;BME280;3570;43.080;25.628;2023-02-01T00:48:30;-19506.19;;;1.81;100.00
7058;BME280;3570;43.080;25.628;2023-02-01T00:51:19;-19506.19;;;1.81;100.00
7058;BME280;3570;43.080;25.628;2023-02-01T00:54:04;-19504.59;;;1.76;100.00
7058;BME280;3570;43.080;25.628;2023-02-01T00:56:47;-19498.28;;;1.54;100.00
7058;BME280;3570;43.080;25.628;2023-02-01T00:59:31;-19504.88;;;1.77;100.00
7058;BME280;3570;43.080;25.628;2023-02-01T01:02:15;-19509.28;;;1.92;100.00
7058;BME280;3570;43.080;25.628;2023-02-01T01:04:59;-19512.06;;;2.02;100.00
7058;BME280;3570;43.080;25.628;2023-02-01T01:07:43;-19510.16;;;1.95;100.00
7058;BME280;3570;43.080;25.628;2023-02-01T01:10:27;-19515.16;;;2.12;100.00
7058;BME280;3570;43.080;25.628;2023-02-01T01:13:11;-19508.69;;;1.90;100.00
7058;BME280;3570;43.080;25.628;2023-02-01T01:15:55;-19513.25;;;2.06;100.00
7058;BME280;3570;43.080;25.628;2023-02-01T01:18:39;-19514.56;;;2.10;100.00
7058;BME280;3570;43.080;25.628;2023-02-01T01:21:24;-19511.94;;;2.01;100.00
7058;BME280;3570;43.080;25.628;2023-02-01T01:24:08;-19507.53;;;1.86;100.00
7058;BME280;3570;43.080;25.628;2023-02-01T01:26:52;-19509.00;;;1.91;100.00
7058;BME280;3570;43.080;25.628;2023-02-01T01:29:36;-19511.94;;;2.01;100.00
7058;BME280;3570;43.080;25.628;2023-02-01T01:32:20;-19510.75;;;1.97;100.00
7058;BME280;3570;43.080;25.628;2023-02-01T01:35:05;-19507.81;;;1.87;100.00
7058;BME280;3570;43.080;25.628;2023-02-01T01:37:49;-19503.41;;;1.72;100.00
7058;BME280;3570;43.080;25.628;2023-02-01T01:40:33;-19508.69;;;1.90;100.00
7058;BME280;3570;43.080;25.628;2023-02-01T01:43:19;-19508.41;;;1.89;100.00
7058;BME280;3570;43.080;25.628;2023-02-01T01:46:06;-19502.25;;;1.68;100.00
7058;BME280;3570;43.080;25.628;2023-02-01T01:51:49;-19500.19;;;1.61;100.00
7058;BME280;3570;43.080;25.628;2023-02-01T01:54:43;-19500.47;;;1.62;100.00
7058;BME280;3570;43.080;25.628;2023-02-01T01:57:37;-19496.22;;;1.47;100.00
7058;BME280;3570;43.080;25.628;2023-02-01T02:00:21;-19500.75;;;1.63;100.00
7058;BME280;3570;43.080;25.628;2023-02-01T02:03:37;-19506.19;;;1.81;100.00
7058;BME280;3570;43.080;25.628;2023-02-01T02:09:16;-19504.00;;;1.74;100.00
7058;BME280;3570;43.080;25.628;2023-02-01T02:12:00;-19505.63;;;1.79;100.00
7058;BME280;3570;43.080;25.628;2023-02-01T02:14:44;-19502.81;;;1.70;100.00
7058;BME280;3570;43.080;25.628;2023-02-01T02:21:01;-19494.75;;;1.42;100.00
7058;BME280;3570;43.080;25.628;2023-02-01T02:39:28;-19495.34;;;1.44;100.00
7058;BME280;3570;43.080;25.628;2023-02-01T02:42:32;-19493.72;;;1.39;100.00
7058;BME280;3570;43.080;25.628;2023-02-01T02:45:47;-19494.59;;;1.42;100.00
7058;BME280;3570;43.080;25.628;2023-02-01T02:49:04;-19493.13;;;1.37;100.00
7058;BME280;3570;43.080;25.628;2023-02-01T02:51:58;-19493.13;;;1.37;100.00
7058;BME280;3570;43.080;25.628;2023-02-01T02:55:07;-19495.47;;;1.45;100.00
7058;BME280;3570;43.080;25.628;2023-02-01T02:57:53;-19489.00;;;1.23;100.00
7058;BME280;3570;43.080;25.628;2023-02-01T03:00:57;-19490.47;;;1.28;100.00
7058;BME280;3570;43.080;25.628;2023-02-01T03:04:01;-19494.44;;;1.41;100.00
7058;BME280;3570;43.080;25.628;2023-02-01T03:06:53;-19497.84;;;1.53;100.00
7058;BME280;3570;43.080;25.628;2023-02-01T03:09:37;-19493.72;;;1.39;100.00
7058;BME280;3570;43.080;25.628;2023-02-01T03:12:24;-19500.31;;;1.61;100.00
7058;BME280;3570;43.080;25.628;2023-02-01T03:15:42;-19495.19;;;1.44;100.00
7058;BME280;3570;43.080;25.628;2023-02-01T03:18:35;-19500.31;;;1.61;100.00
7058;BME280;3570;43.080;25.628;2023-02-01T03:21:37;-19492.41;;;1.34;100.00
7058;BME280;3570;43.080;25.628;2023-02-01T03:24:26;-19498.28;;;1.54;100.00
7058;BME280;3570;43.080;25.628;2023-02-01T03:30:25;-19494.16;;;1.40;100.00
7058;BME280;3570;43.080;25.628;2023-02-01T03:33:16;-19496.34;;;1.48;100.00
7058;BME280;3570;43.080;25.628;2023-02-01T03:42:04;-19489.75;;;1.25;100.00
7058;BME280;3570;43.080;25.628;2023-02-01T03:44:57;-19493.56;;;1.38;100.00
7058;BME280;3570;43.080;25.628;2023-02-01T03:47:49;-19496.06;;;1.47;100.00
7058;BME280;3570;43.080;25.628;2023-02-01T03:50:37;-19496.66;;;1.49;100.00
7058;BME280;3570;43.080;25.628;2023-02-01T03:53:23;-19496.34;;;1.48;100.00
7058;BME280;3570;43.080;25.628;2023-02-01T03:56:08;-19496.34;;;1.48;100.00
7058;BME280;3570;43.080;25.628;2023-02-01T03:58:55;-19493.13;;;1.37;100.00
7058;BME280;3570;43.080;25.628;2023-02-01T04:01:42;-19499.88;;;1.60;100.00
7058;BME280;3570;43.080;25.628;2023-02-01T04:04:26;-19503.13;;;1.71;100.00
7058;BME280;3570;43.080;25.628;2023-02-01T04:07:11;-19500.75;;;1.63;100.00
7058;BME280;3570;43.080;25.628;2023-02-01T04:09:55;-19500.91;;;1.63;100.00
7058;BME280;3570;43.080;25.628;2023-02-01T04:12:40;-19502.38;;;1.68;100.00
7058;BME280;3570;43.080;25.628;2023-02-01T04:15:25;-19497.53;;;1.52;100.00
7058;BME280;3570;43.080;25.628;2023-02-01T04:18:09;-19502.81;;;1.70;100.00
7058;BME280;3570;43.080;25.628;2023-02-01T04:20:52;-19495.34;;;1.44;100.00
7058;BME280;3570;43.080;25.628;2023-02-01T04:23:36;-19501.22;;;1.64;100.00
7058;BME280;3570;43.080;25.628;2023-02-01T04:26:21;-19494.88;;;1.43;100.00
7058;BME280;3570;43.080;25.628;2023-02-01T04:29:05;-19502.53;;;1.69;100.00
7058;BME280;3570;43.080;25.628;2023-02-01T04:31:49;-19501.34;;;1.65;100.00
7058;BME280;3570;43.080;25.628;2023-02-01T04:34:33;-19496.50;;;1.48;100.00
7058;BME280;3570;43.080;25.628;2023-02-01T04:37:17;-19496.06;;;1.47;100.00
7058;BME280;3570;43.080;25.628;2023-02-01T04:40:01;-19501.50;;;1.65;100.00
7058;BME280;3570;43.080;25.628;2023-02-01T04:42:47;-19489.47;;;1.24;100.00
7058;BME280;3570;43.080;25.628;2023-02-01T04:45:31;-19490.19;;;1.27;100.00
7058;BME280;3570;43.080;25.628;2023-02-01T04:48:16;-19495.34;;;1.44;100.00
7058;BME280;3570;43.080;25.628;2023-02-01T04:51:00;-19489.59;;;1.25;100.00
7058;BME280;3570;43.080;25.628;2023-02-01T04:53:44;-19496.50;;;1.48;100.00
7058;BME280;3570;43.080;25.628;2023-02-01T04:56:28;-19492.53;;;1.35;100.00
7058;BME280;3570;43.080;25.628;2023-02-01T04:59:12;-19491.22;;;1.30;100.00
7058;BME280;3570;43.080;25.628;2023-02-01T05:01:56;-19480.19;;;0.92;100.00
7058;BME280;3570;43.080;25.628;2023-02-01T05:04:40;-19483.00;;;1.02;100.00
7058;BME280;3570;43.080;25.628;2023-02-01T05:07:24;-19482.53;;;1.01;100.00
7058;BME280;3570;43.080;25.628;2023-02-01T05:10:08;-19474.75;;;0.74;100.00
7058;BME280;3570;43.080;25.628;2023-02-01T05:12:53;-19474.47;;;0.73;100.00
7058;BME280;3570;43.080;25.628;2023-02-01T05:15:55;-19469.03;;;0.54;100.00
7058;BME280;3570;43.080;25.628;2023-02-01T05:18:39;-19476.38;;;0.79;100.00
7058;BME280;3570;43.080;25.628;2023-02-01T05:21:24;-19475.66;;;0.77;100.00
7058;BME280;3570;43.080;25.628;2023-02-01T05:24:08;-19473.72;;;0.70;100.00
7058;BME280;3570;43.080;25.628;2023-02-01T05:27:04;-19471.38;;;0.62;100.00
7058;BME280;3570;43.080;25.628;2023-02-01T05:29:48;-19460.06;;;0.24;100.00
7058;BME280;3570;43.080;25.628;2023-02-01T05:32:32;-19457.41;;;0.15;100.00
7058;BME280;3570;43.080;25.628;2023-02-01T05:35:17;-19450.81;;;-0.08;100.00
7058;BME280;3570;43.080;25.628;2023-02-01T05:38:00;-19456.69;;;0.12;100.00
7058;BME280;3570;43.080;25.628;2023-02-01T05:40:44;-19457.41;;;0.15;100.00
7058;BME280;3570;43.080;25.628;2023-02-01T05:43:33;-19462.72;;;0.33;100.00
7058;BME280;3570;43.080;25.628;2023-02-01T05:46:18;-19465.06;;;0.41;100.00
7058;BME280;3570;43.080;25.628;2023-02-01T05:49:03;-19462.84;;;0.33;100.00
7058;BME280;3570;43.080;25.628;2023-02-01T05:51:47;-19463.16;;;0.34;100.00
7058;BME280;3570;43.080;25.628;2023-02-01T05:54:31;-19450.50;;;-0.09;100.00
7058;BME280;3570;43.080;25.628;2023-02-01T05:57:15;-19462.41;;;0.32;100.00
7058;BME280;3570;43.080;25.628;2023-02-01T05:59:59;-19464.91;;;0.40;100.00
7058;BME280;3570;43.080;25.628;2023-02-01T06:02:43;-19468.88;;;0.54;100.00
7058;BME280;3570;43.080;25.628;2023-02-01T06:05:27;-19463.00;;;0.34;100.00
7058;BME280;3570;43.080;25.628;2023-02-01T06:08:12;-19468.72;;;0.53;100.00
7058;BME280;3570;43.080;25.628;2023-02-01T06:10:58;-19470.50;;;0.59;100.00
7058;BME280;3570;43.080;25.628;2023-02-01T06:13:42;-19469.91;;;0.57;100.00
7058;BME280;3570;43.080;25.628;2023-02-01T06:16:26;-19475.78;;;0.77;100.00
7058;BME280;3570;43.080;25.628;2023-02-01T06:19:11;-19477.84;;;0.84;100.00
7058;BME280;3570;43.080;25.628;2023-02-01T06:21:55;-19478.13;;;0.85;100.00
7058;BME280;3570;43.080;25.628;2023-02-01T06:24:39;-19473.88;;;0.71;100.00
7058;BME280;3570;43.080;25.628;2023-02-01T06:27:25;-19481.22;;;0.96;100.00
7058;BME280;3570;43.080;25.628;2023-02-01T06:30:09;-19481.06;;;0.95;100.00
7058;BME280;3570;43.080;25.628;2023-02-01T06:32:53;-19485.34;;;1.10;100.00
7058;BME280;3570;43.080;25.628;2023-02-01T06:35:37;-19489.47;;;1.24;100.00
7058;BME280;3570;43.080;25.628;2023-02-01T06:38:21;-19482.53;;;1.01;100.00
7058;BME280;3570;43.080;25.628;2023-02-01T06:41:05;-19490.47;;;1.28;100.00
7058;BME280;3570;43.080;25.628;2023-02-01T06:43:53;-19484.16;;;1.06;100.00
7058;BME280;3570;43.080;25.628;2023-02-01T06:46:37;-19491.38;;;1.31;100.00
7058;BME280;3570;43.080;25.628;2023-02-01T06:49:21;-19494.31;;;1.41;100.00
7058;BME280;3570;43.080;25.628;2023-02-01T06:52:05;-19494.59;;;1.42;100.00
7058;BME280;3570;43.080;25.628;2023-02-01T06:54:49;-19497.97;;;1.53;100.00
7058;BME280;3570;43.080;25.628;2023-02-01T06:57:33;-19504.28;;;1.75;100.00
7058;BME280;3570;43.080;25.628;2023-02-01T07:00:19;-19499.00;;;1.57;100.00
7058;BME280;3570;43.080;25.628;2023-02-01T07:03:04;-19506.50;;;1.82;100.00
7058;BME280;3570;43.080;25.628;2023-02-01T07:05:47;-19518.84;;;2.25;100.00
7058;BME280;3570;43.080;25.628;2023-02-01T07:08:33;-19512.81;;;2.04;100.00
7058;BME280;3570;43.080;25.628;2023-02-01T07:11:18;-19526.03;;;2.49;100.00
7058;BME280;3570;43.080;25.628;2023-02-01T07:14:03;-19538.66;;;2.93;100.00
7058;BME280;3570;43.080;25.628;2023-02-01T07:16:47;-19536.31;;;2.84;100.00
7058;BME280;3570;43.080;25.628;2023-02-01T07:19:31;-19547.03;;;3.21;100.00
7058;BME280;3570;43.080;25.628;2023-02-01T07:22:18;-19547.59;;;3.23;100.00
7058;BME280;3570;43.080;25.628;2023-02-01T07:25:02;-19546.88;;;3.21;100.00
7058;BME280;3570;43.080;25.628;2023-02-01T07:27:46;-19539.53;;;2.96;100.00
7058;BME280;3570;43.080;25.628;2023-02-01T07:30:30;-19544.22;;;3.12;100.00
7058;BME280;3570;43.080;25.628;2023-02-01T07:33:14;-19545.41;;;3.16;100.00
7058;BME280;3570;43.080;25.628;2023-02-01T07:36:00;-19529.25;;;2.60;100.00
7058;BME280;3570;43.080;25.628;2023-02-01T07:38:45;-19546.00;;;3.18;100.00
7058;BME280;3570;43.080;25.628;2023-02-01T07:41:32;-19543.22;;;3.08;100.00
7058;BME280;3570;43.080;25.628;2023-02-01T07:44:16;-19548.19;;;3.25;100.00
7058;BME280;3570;43.080;25.628;2023-02-01T07:47:06;-19546.88;;;3.21;100.00
7058;BME280;3570;43.080;25.628;2023-02-01T07:49:50;-19550.69;;;3.34;100.00
7058;BME280;3570;43.080;25.628;2023-02-01T07:52:34;-19556.56;;;3.54;100.00
7058;BME280;3570;43.080;25.628;2023-02-01T07:55:18;-19555.38;;;3.50;100.00
7058;BME280;3570;43.080;25.628;2023-02-01T07:58:01;-19551.72;;;3.37;100.00
7058;BME280;3570;43.080;25.628;2023-02-01T08:00:46;-19562.28;;;3.73;100.00
7058;BME280;3570;43.080;25.628;2023-02-01T08:03:51;-19564.78;;;3.82;100.00
7058;BME280;3570;43.080;25.628;2023-02-01T08:06:36;-19562.13;;;3.73;100.00
7058;BME280;3570;43.080;25.628;2023-02-01T08:09:19;-19554.34;;;3.46;100.00
7058;BME280;3570;43.080;25.628;2023-02-01T08:12:03;-19559.50;;;3.64;100.00
7058;BME280;3570;43.080;25.628;2023-02-01T08:14:48;-19544.53;;;3.13;100.00
7058;BME280;3570;43.080;25.628;2023-02-01T08:17:32;-19554.94;;;3.48;100.00
7058;BME280;3570;43.080;25.628;2023-02-01T08:20:17;-19578.56;;;4.29;100.00
7058;BME280;3570;43.080;25.628;2023-02-01T08:23:02;-19572.25;;;4.08;100.00
7058;BME280;3570;43.080;25.628;2023-02-01T08:25:46;-19580.63;;;4.36;100.00
7058;BME280;3570;43.080;25.628;2023-02-01T08:28:31;-19577.09;;;4.24;100.00
7058;BME280;3570;43.080;25.628;2023-02-01T08:31:17;-19571.66;;;4.06;100.00
7058;BME280;3570;43.080;25.628;2023-02-01T08:34:02;-19567.13;;;3.90;100.00
7058;BME280;3570;43.080;25.628;2023-02-01T08:36:52;-19582.09;;;4.41;100.00
7058;BME280;3570;43.080;25.628;2023-02-01T08:39:41;-19593.22;;;4.79;100.00
7058;BME280;3570;43.080;25.628;2023-02-01T08:42:27;-19586.19;;;4.55;100.00
7058;BME280;3570;43.080;25.628;2023-02-01T08:45:29;-19585.00;;;4.51;100.00
7058;BME280;3570;43.080;25.628;2023-02-01T08:48:14;-19587.38;;;4.59;100.00
7058;BME280;3570;43.080;25.628;2023-02-01T08:51:04;-19595.72;;;4.88;100.00
7058;BME280;3570;43.080;25.628;2023-02-01T08:53:49;-19599.38;;;5.01;100.00
7058;BME280;3570;43.080;25.628;2023-02-01T08:56:34;-19600.56;;;5.05;100.00
7058;BME280;3570;43.080;25.628;2023-02-01T08:59:18;-19591.03;;;4.72;100.00
7058;BME280;3570;43.080;25.628;2023-02-01T09:02:02;-19605.41;;;5.21;100.00
7058;BME280;3570;43.080;25.628;2023-02-01T09:04:46;-19602.47;;;5.11;100.00
7058;BME280;3570;43.080;25.628;2023-02-01T09:07:30;-19598.22;;;4.97;100.00
7058;BME280;3570;43.080;25.628;2023-02-01T09:10:16;-19594.41;;;4.84;100.00
7058;BME280;3570;43.080;25.628;2023-02-01T09:13:00;-19597.03;;;4.93;100.00
7058;BME280;3570;43.080;25.628;2023-02-01T09:15:44;-19598.34;;;4.97;100.00
7058;BME280;3570;43.080;25.628;2023-02-01T09:18:29;-19597.63;;;4.95;100.00
7058;BME280;3570;43.080;25.628;2023-02-01T09:21:13;-19598.81;;;4.99;100.00
7058;BME280;3570;43.080;25.628;2023-02-01T09:23:58;-19601.72;;;5.09;100.00
7058;BME280;3570;43.080;25.628;2023-02-01T09:26:43;-19587.66;;;4.60;100.00
7058;BME280;3570;43.080;25.628;2023-02-01T09:29:26;-19600.56;;;5.05;100.00
7058;BME280;3570;43.080;25.628;2023-02-01T09:32:10;-19605.53;;;5.22;100.00
7058;BME280;3570;43.080;25.628;2023-02-01T09:34:54;-19604.38;;;5.18;100.00
7058;BME280;3570;43.080;25.628;2023-02-01T09:37:38;-19601.44;;;5.08;100.00
7058;BME280;3570;43.080;25.628;2023-02-01T09:40:22;-19600.41;;;5.04;100.00
7058;BME280;3570;43.080;25.628;2023-02-01T09:43:16;-19610.09;;;5.37;100.00
7058;BME280;3570;43.080;25.628;2023-02-01T09:46:37;-19632.06;;;6.13;100.00
7058;BME280;3570;43.080;25.628;2023-02-01T09:49:28;-19636.16;;;6.27;100.00
7058;BME280;3570;43.080;25.628;2023-02-01T09:52:13;-19626.34;;;5.93;100.00
7058;BME280;3570;43.080;25.628;2023-02-01T09:55:03;-19642.03;;;6.47;100.00
7058;BME280;3570;43.080;25.628;2023-02-01T09:57:56;-19650.97;;;6.78;100.00
7058;BME280;3570;43.080;25.628;2023-02-01T10:00:54;-19623.72;;;5.84;100.00
7058;BME280;3570;43.080;25.628;2023-02-01T10:03:38;-19630.16;;;6.06;100.00
7058;BME280;3570;43.080;25.628;2023-02-01T10:06:33;-19622.25;;;5.79;100.00
7058;BME280;3570;43.080;25.628;2023-02-01T10:09:35;-19649.50;;;6.73;100.00
7058;BME280;3570;43.080;25.628;2023-02-01T10:16:12;-19712.00;;;8.87;85.54
7058;BME280;3570;43.080;25.628;2023-02-01T10:22:00;-19722.53;;;9.23;78.90
7058;BME280;3570;43.080;25.628;2023-02-01T10:25:08;-19727.34;;;9.40;77.98
7058;BME280;3570;43.080;25.628;2023-02-01T10:28:00;-19697.50;;;8.37;78.67
7058;BME280;3570;43.080;25.628;2023-02-01T10:30:47;-19677.47;;;7.69;81.21
7058;BME280;3570;43.080;25.628;2023-02-01T10:33:51;-19693.72;;;8.24;80.21
7058;BME280;3570;43.080;25.628;2023-02-01T10:43:00;-19707.03;;;8.70;77.54
7058;BME280;3570;43.080;25.628;2023-02-01T10:45:45;-19733.19;;;9.60;73.89
7058;BME280;3570;43.080;25.628;2023-02-01T10:48:30;-19712.44;;;8.89;74.42
7058;BME280;3570;43.080;25.628;2023-02-01T10:54:11;-19739.63;;;9.82;68.86
7058;BME280;3570;43.080;25.628;2023-02-01T10:56:58;-19736.41;;;9.71;70.35
7058;BME280;3570;43.080;25.628;2023-02-01T10:59:42;-19698.84;;;8.42;74.36
7058;BME280;3570;43.080;25.628;2023-02-01T11:02:30;-19690.19;;;8.12;77.52
7058;BME280;3570;43.080;25.628;2023-02-01T11:05:15;-19675.56;;;7.62;78.41
7058;BME280;3570;43.080;25.628;2023-02-01T11:08:02;-19670.16;;;7.43;80.87
7058;BME280;3570;43.080;25.628;2023-02-01T11:10:47;-19680.97;;;7.81;79.64
7058;BME280;3570;43.080;25.628;2023-02-01T11:13:41;-19681.84;;;7.84;79.71
7058;BME280;3570;43.080;25.628;2023-02-01T11:16:32;-19702.47;;;8.54;76.54
7058;BME280;3570;43.080;25.628;2023-02-01T11:19:17;-19687.56;;;8.03;79.58
7058;BME280;3570;43.080;25.628;2023-02-01T11:22:01;-19723.25;;;9.26;77.03
7058;BME280;3570;43.080;25.628;2023-02-01T11:24:46;-19725.44;;;9.33;76.28
7058;BME280;3570;43.080;25.628;2023-02-01T11:27:33;-19739.75;;;9.83;74.20
7058;BME280;3570;43.080;25.628;2023-02-01T11:30:21;-19736.69;;;9.72;71.69
7058;BME280;3570;43.080;25.628;2023-02-01T11:33:12;-19734.94;;;9.66;70.64
7058;BME280;3570;43.080;25.628;2023-02-01T11:35:57;-19745.75;;;10.03;69.41
7058;BME280;3570;43.080;25.628;2023-02-01T11:42:02;-19754.53;;;10.33;65.22
7058;BME280;3570;43.080;25.628;2023-02-01T11:44:47;-19749.84;;;10.17;67.98
7058;BME280;3570;43.080;25.628;2023-02-01T11:47:39;-19725.16;;;9.32;69.23
7058;BME280;3570;43.080;25.628;2023-02-01T11:50:38;-19707.16;;;8.71;72.80
7058;BME280;3570;43.080;25.628;2023-02-01T12:00:08;-19795.56;;;11.75;64.03
7058;BME280;3570;43.080;25.628;2023-02-01T12:06:29;-19862.94;;;14.07;51.86
7058;BME280;3570;43.080;25.628;2023-02-01T12:12:18;-19803.16;;;12.01;59.84
7058;BME280;3570;43.080;25.628;2023-02-01T12:15:26;-19776.88;;;11.10;58.67
7058;BME280;3570;43.080;25.628;2023-02-01T12:21:28;-19797.47;;;11.81;57.57
7058;BME280;3570;43.080;25.628;2023-02-01T12:45:57;-19694.28;;;8.26;72.92
7058;BME280;3570;43.080;25.628;2023-02-01T12:52:30;-19690.78;;;8.14;74.02
7058;BME280;3570;43.080;25.628;2023-02-01T12:58:48;-19701.91;;;8.52;73.33
7058;BME280;3570;43.080;25.628;2023-02-01T13:01:44;-19698.38;;;8.40;74.21
7058;BME280;3570;43.080;25.628;2023-02-01T13:04:58;-19712.00;;;8.87;74.27
7058;BME280;3570;43.080;25.628;2023-02-01T13:07:50;-19731.16;;;9.53;70.82
7058;BME280;3570;43.080;25.628;2023-02-01T13:10:43;-19754.66;;;10.34;67.24
7058;BME280;3570;43.080;25.628;2023-02-01T13:13:35;-19754.81;;;10.34;66.50
7058;BME280;3570;43.080;25.628;2023-02-01T13:16:25;-19749.72;;;10.17;68.57
7058;BME280;3570;43.080;25.628;2023-02-01T13:25:49;-19759.19;;;10.50;65.58
7058;BME280;3570;43.080;25.628;2023-02-01T13:35:32;-19741.38;;;9.88;67.48
7058;BME280;3570;43.080;25.628;2023-02-01T13:41:30;-19783.28;;;11.32;61.43
7058;BME280;3570;43.080;25.628;2023-02-01T13:44:22;-19778.78;;;11.17;62.10
7058;BME280;3570;43.080;25.628;2023-02-01T13:47:18;-19797.47;;;11.81;60.18
7058;BME280;3570;43.080;25.628;2023-02-01T13:50:19;-19814.09;;;12.39;58.01
7058;BME280;3570;43.080;25.628;2023-02-01T13:53:15;-19825.16;;;12.77;56.83
7058;BME280;3570;43.080;25.628;2023-02-01T13:56:15;-19823.56;;;12.71;56.75
7058;BME280;3570;43.080;25.628;2023-02-01T13:59:36;-19834.81;;;13.10;56.67
7058;BME280;3570;43.080;25.628;2023-02-01T14:08:13;-19842.97;;;13.38;54.17
7058;BME280;3570;43.080;25.628;2023-02-01T14:10:58;-19791.03;;;11.59;59.46
7058;BME280;3570;43.080;25.628;2023-02-01T14:13:42;-19807.53;;;12.16;59.31
7058;BME280;3570;43.080;25.628;2023-02-01T14:16:26;-19803.16;;;12.01;58.26
7058;BME280;3570;43.080;25.628;2023-02-01T14:19:25;-19798.91;;;11.86;59.46
7058;BME280;3570;43.080;25.628;2023-02-01T14:25:16;-19803.00;;;12.00;59.22
7058;BME280;3570;43.080;25.628;2023-02-01T14:28:11;-19798.34;;;11.84;57.75
7058;BME280;3570;43.080;25.628;2023-02-01T14:30:57;-19788.84;;;11.52;57.36
7058;BME280;3570;43.080;25.628;2023-02-01T14:33:42;-19766.50;;;10.75;58.98
7058;BME280;3570;43.080;25.628;2023-02-01T14:36:40;-19753.66;;;10.30;60.90
7058;BME280;3570;43.080;25.628;2023-02-01T14:39:35;-19755.69;;;10.37;61.56
7058;BME280;3570;43.080;25.628;2023-02-01T14:42:44;-19757.31;;;10.43;60.52
7058;BME280;3570;43.080;25.628;2023-02-01T14:45:50;-19730.56;;;9.51;63.61
7058;BME280;3570;43.080;25.628;2023-02-01T14:51:19;-19726.19;;;9.36;64.74
7058;BME280;3570;43.080;25.628;2023-02-01T14:54:04;-19712.13;;;8.88;66.41
7058;BME280;3570;43.080;25.628;2023-02-01T14:56:53;-19697.66;;;8.38;69.44
7058;BME280;3570;43.080;25.628;2023-02-01T14:59:37;-19679.66;;;7.76;72.51
7058;BME280;3570;43.080;25.628;2023-02-01T15:02:25;-19668.69;;;7.38;75.34
7058;BME280;3570;43.080;25.628;2023-02-01T15:05:23;-19662.38;;;7.17;76.33
7058;BME280;3570;43.080;25.628;2023-02-01T15:08:17;-19653.59;;;6.87;77.65
7058;BME280;3570;43.080;25.628;2023-02-01T15:11:08;-19656.81;;;6.98;78.56
7058;BME280;3570;43.080;25.628;2023-02-01T15:13:55;-19656.53;;;6.97;79.45
7058;BME280;3570;43.080;25.628;2023-02-01T15:16:42;-19654.78;;;6.91;79.34
7058;BME280;3570;43.080;25.628;2023-02-01T15:19:29;-19645.41;;;6.58;78.95
7058;BME280;3570;43.080;25.628;2023-02-01T15:22:18;-19647.59;;;6.66;79.80
7058;BME280;3570;43.080;25.628;2023-02-01T15:25:03;-19646.28;;;6.61;78.09
7058;BME280;3570;43.080;25.628;2023-02-01T15:27:47;-19643.94;;;6.53;78.09
7058;BME280;3570;43.080;25.628;2023-02-01T15:30:33;-19642.91;;;6.50;78.71
7058;BME280;3570;43.080;25.628;2023-02-01T15:33:18;-19637.06;;;6.30;79.59
7058;BME280;3570;43.080;25.628;2023-02-01T15:36:10;-19633.84;;;6.19;79.90
7058;BME280;3570;43.080;25.628;2023-02-01T15:39:16;-19631.63;;;6.11;81.04
7058;BME280;3570;43.080;25.628;2023-02-01T15:42:10;-19628.25;;;6.00;81.24
7058;BME280;3570;43.080;25.628;2023-02-01T15:44:55;-19623.72;;;5.84;81.44
7058;BME280;3570;43.080;25.628;2023-02-01T15:47:39;-19619.91;;;5.71;81.51
7058;BME280;3570;43.080;25.628;2023-02-01T15:50:27;-19625.03;;;5.89;81.35
7058;BME280;3570;43.080;25.628;2023-02-01T15:53:22;-19621.22;;;5.75;82.26
7058;BME280;3570;43.080;25.628;2023-02-01T15:56:07;-19615.22;;;5.55;82.05
7058;BME280;3570;43.080;25.628;2023-02-01T15:58:55;-19621.06;;;5.75;82.13
7058;BME280;3570;43.080;25.628;2023-02-01T16:01:40;-19615.22;;;5.55;81.01
7058;BME280;3570;43.080;25.628;2023-02-01T16:04:26;-19609.94;;;5.37;82.15
7058;BME280;3570;43.080;25.628;2023-02-01T16:07:32;-19615.50;;;5.56;82.81
7058;BME280;3570;43.080;25.628;2023-02-01T16:10:26;-19613.59;;;5.49;82.92
7058;BME280;3570;43.080;25.628;2023-02-01T16:13:11;-19612.88;;;5.47;82.43
7058;BME280;3570;43.080;25.628;2023-02-01T16:15:56;-19613.00;;;5.47;82.70
7058;BME280;3570;43.080;25.628;2023-02-01T16:18:41;-19611.69;;;5.43;83.30
7058;BME280;3570;43.080;25.628;2023-02-01T16:21:25;-19607.59;;;5.29;83.15
7058;BME280;3570;43.080;25.628;2023-02-01T16:24:09;-19609.50;;;5.35;83.03
7058;BME280;3570;43.080;25.628;2023-02-01T16:26:53;-19601.72;;;5.09;83.38
7058;BME280;3570;43.080;25.628;2023-02-01T16:29:37;-19608.03;;;5.30;82.94
7058;BME280;3570;43.080;25.628;2023-02-01T16:32:21;-19600.41;;;5.04;83.22
7058;BME280;3570;43.080;25.628;2023-02-01T16:35:14;-19604.66;;;5.19;83.54
7058;BME280;3570;43.080;25.628;2023-02-01T16:38:10;-19603.50;;;5.15;83.04
7058;BME280;3570;43.080;25.628;2023-02-01T16:40:56;-19605.25;;;5.21;83.87
7058;BME280;3570;43.080;25.628;2023-02-01T16:43:41;-19603.50;;;5.15;83.84
7058;BME280;3570;43.080;25.628;2023-02-01T16:46:28;-19602.03;;;5.10;84.52
7058;BME280;3570;43.080;25.628;2023-02-01T16:49:25;-19600.25;;;5.04;84.73
7058;BME280;3570;43.080;25.628;2023-02-01T16:52:15;-19598.50;;;4.98;84.85
7058;BME280;3570;43.080;25.628;2023-02-01T16:55:00;-19596.44;;;4.91;85.35
7058;BME280;3570;43.080;25.628;2023-02-01T16:57:44;-19595.56;;;4.88;85.23
7058;BME280;3570;43.080;25.628;2023-02-01T17:00:29;-19595.72;;;4.88;85.30